Weather at Bagdad Airport

Public forecast

Using degrees Fahrenheit for public forecast. Weather courtesy of forecast.io.

Closest aviation weather report (METAR) to Bagdad Airport

Closest report is Prescott International Airport - Ernest A. Love Field, 37.2 nm (68.9 km) E. Retrieved 2021/06/13 15:53 UTC (15 minutes ago):

KPRC 131553Z 09003KT 10SM CLR 28/M09 A3014 RMK AO2 SLP112 T02831089

Closest aviation forecast (TAF) to Bagdad Airport

Closest forecast is Prescott International Airport - Ernest A. Love Field, 37.2 nm (68.9 km) E. Retrieved 2021/06/13 12:22 UTC (4 hours ago):

TAF KPRC 131120Z 1312/1412 19009KT P6SM SKC FM131900 22013G23KT P6SM SKC FM140300 20006KT P6SM SKC